createdAt,value
2019-04-22T00:01:12.945Z,42.69
2019-04-22T00:03:44.805Z,42.43
2019-04-22T00:06:38.199Z,43.17
2019-04-22T00:09:03.745Z,42.68
2019-04-22T00:14:01.210Z,43.16
2019-04-22T00:16:38.838Z,43.33
2019-04-22T00:24:04.507Z,43.60
2019-04-22T00:26:37.991Z,43.36
2019-04-22T00:29:10.962Z,44.02
2019-04-22T00:31:32.740Z,43.29
2019-04-22T00:34:03.458Z,43.83
2019-04-22T00:36:35.235Z,43.80
2019-04-22T00:39:07.385Z,43.75
2019-04-22T00:41:42.556Z,44.16
2019-04-22T00:44:15.731Z,43.98
2019-04-22T00:46:42.418Z,43.30
2019-04-22T00:49:55.416Z,43.60
2019-04-22T00:51:44.332Z,43.23
2019-04-22T00:54:08.571Z,43.82
2019-04-22T00:56:35.728Z,44.19
2019-04-22T00:59:07.065Z,44.19
2019-04-22T01:01:37.137Z,43.82
2019-04-22T01:04:16.254Z,44.09
2019-04-22T01:06:41.362Z,44.66
2019-04-22T01:09:13.682Z,44.54
2019-04-22T01:11:37.618Z,44.35
2019-04-22T01:14:06.434Z,44.18
2019-04-22T01:16:43.020Z,44.29
2019-04-22T01:19:14.751Z,44.51
2019-04-22T01:21:39.167Z,44.65
2019-04-22T01:24:09.211Z,45.69
2019-04-22T01:26:36.206Z,43.99
2019-04-22T01:29:05.104Z,44.98
2019-04-22T01:31:27.531Z,44.70
2019-04-22T01:34:05.480Z,45.02
2019-04-22T01:36:43.115Z,44.94
2019-04-22T01:39:16.711Z,45.52
2019-04-22T01:41:58.085Z,45.38
2019-04-22T01:46:53.991Z,45.78
2019-04-22T01:49:21.488Z,45.95
2019-04-22T01:54:29.768Z,44.73
2019-04-22T01:56:52.638Z,44.47
2019-04-22T01:59:15.655Z,45.42
2019-04-22T02:04:25.600Z,45.11
2019-04-22T02:11:57.196Z,44.93
2019-04-22T02:14:29.170Z,46.40
2019-04-22T02:16:58.067Z,45.23
2019-04-22T02:20:31.593Z,45.57
2019-04-22T02:21:56.602Z,44.84
2019-04-22T02:24:26.421Z,46.32
2019-04-22T02:34:37.568Z,46.56
2019-04-22T02:36:56.279Z,45.72
2019-04-22T02:39:24.423Z,45.36
2019-04-22T02:42:02.942Z,45.48
2019-04-22T02:44:31.331Z,46.11
2019-04-22T02:51:52.325Z,45.86
2019-04-22T02:54:38.327Z,46.09
2019-04-22T02:57:03.342Z,45.69
2019-04-22T02:59:31.367Z,45.60
2019-04-22T03:01:57.953Z,46.40
2019-04-22T03:04:22.823Z,45.77
2019-04-22T03:06:49.499Z,45.64
2019-04-22T03:09:28.653Z,45.64
2019-04-22T03:12:09.645Z,45.82
2019-04-22T03:14:30.304Z,45.50
2019-04-22T03:17:03.537Z,46.12
2019-04-22T03:19:47.694Z,45.62
2019-04-22T03:22:06.119Z,45.83
2019-04-22T03:27:01.108Z,45.51
2019-04-22T03:33:09.511Z,45.38
2019-04-22T03:37:48.836Z,45.64
2019-04-22T03:40:16.201Z,46.00
2019-04-22T03:42:46.177Z,45.55
2019-04-22T03:45:22.396Z,45.35
2019-04-22T03:47:41.514Z,45.01
2019-04-22T03:50:17.396Z,46.05
2019-04-22T03:52:43.073Z,46.33
2019-04-22T03:55:07.426Z,45.65
2019-04-22T04:00:17.392Z,45.15
2019-04-22T04:05:19.656Z,46.09
2019-04-22T04:10:23.388Z,46.56
2019-04-22T04:12:47.123Z,45.91
2019-04-22T04:15:18.994Z,45.07
2019-04-22T04:17:50.136Z,46.08
2019-04-22T04:37:52.129Z,46.73
2019-04-22T04:47:49.269Z,45.07
2019-04-22T04:50:32.091Z,44.03
2019-04-22T04:53:08.348Z,43.95
2019-04-22T05:02:55.618Z,43.20
2019-04-22T05:10:26.494Z,42.58
2019-04-22T05:15:21.185Z,42.35
2019-04-22T05:20:29.455Z,41.31
2019-04-22T05:22:46.083Z,42.13
2019-04-22T05:25:18.573Z,42.18
2019-04-22T05:32:44.572Z,41.18
2019-04-22T05:35:14.414Z,41.09
2019-04-22T05:37:45.542Z,40.24
2019-04-22T05:40:16.275Z,39.92
2019-04-22T05:42:39.629Z,40.06
2019-04-22T05:47:41.698Z,40.64
2019-04-22T05:50:15.128Z,40.30
2019-04-22T05:52:47.138Z,40.21
2019-04-22T05:55:26.797Z,40.09
2019-04-22T05:57:51.138Z,39.74
2019-04-22T06:00:26.867Z,39.76
2019-04-22T06:02:55.654Z,39.55
2019-04-22T06:05:17.493Z,39.80
2019-04-22T06:07:45.704Z,39.43
2019-04-22T06:10:31.087Z,39.75
2019-04-22T06:12:55.276Z,39.54
2019-04-22T06:15:27.166Z,40.02
2019-04-22T06:18:06.477Z,39.53
2019-04-22T06:20:32.565Z,40.07
2019-04-22T06:25:38.790Z,41.07
2019-04-22T06:28:11.845Z,40.49
2019-04-22T06:30:48.725Z,40.22
2019-04-22T06:33:00.851Z,40.62
2019-04-22T06:35:54.599Z,40.07
2019-04-22T06:40:32.840Z,39.88
2019-04-22T06:45:37.299Z,39.38
2019-04-22T06:48:06.737Z,38.77
2019-04-22T06:50:40.127Z,38.86
2019-04-22T06:53:05.822Z,38.37
2019-04-22T06:58:04.560Z,39.15
2019-04-22T07:00:36.948Z,40.72
2019-04-22T07:03:30.094Z,38.62
2019-04-22T07:05:43.420Z,38.31
2019-04-22T07:08:30.485Z,38.26
2019-04-22T07:10:53.160Z,38.58
2019-04-22T07:13:11.249Z,37.90
2019-04-22T07:18:11.708Z,38.61
2019-04-22T07:20:45.865Z,37.96
2019-04-22T07:23:13.871Z,38.12
2019-04-22T07:25:41.317Z,37.59
2019-04-22T07:28:13.963Z,38.02
2019-04-22T07:30:38.974Z,37.41
2019-04-22T07:33:21.076Z,37.12
2019-04-22T07:35:54.903Z,37.98
2019-04-22T07:38:22.287Z,37.26
2019-04-22T07:40:45.748Z,36.39
2019-04-22T07:43:20.083Z,36.26
2019-04-22T07:45:44.022Z,36.51
2019-04-22T07:48:22.555Z,36.99
2019-04-22T07:53:12.580Z,35.93
2019-04-22T07:55:46.741Z,36.88
2019-04-22T07:58:19.548Z,35.10
2019-04-22T08:00:43.807Z,35.02
2019-04-22T08:03:18.509Z,35.25
2019-04-22T08:08:20.090Z,35.85
2019-04-22T08:10:49.631Z,36.14
2019-04-22T08:13:19.193Z,33.76
2019-04-22T08:15:53.979Z,33.78
2019-04-22T08:18:22.200Z,33.33
2019-04-22T08:20:47.229Z,33.63
2019-04-22T08:23:24.300Z,35.73
2019-04-22T08:25:49.559Z,31.80
2019-04-22T08:28:26.529Z,33.80
2019-04-22T08:30:53.601Z,31.85
2019-04-22T08:36:07.247Z,32.04
2019-04-22T08:38:34.237Z,32.18
2019-04-22T08:41:08.669Z,31.70
2019-04-22T08:43:36.323Z,32.97
2019-04-22T08:45:58.462Z,31.71
2019-04-22T08:48:30.832Z,29.78
2019-04-22T08:51:07.582Z,33.48
2019-04-22T08:53:35.855Z,30.66
2019-04-22T08:56:06.266Z,29.17
2019-04-22T08:58:31.240Z,29.46
2019-04-22T09:01:05.289Z,33.26
2019-04-22T09:03:36.137Z,29.14
2019-04-22T09:06:06.500Z,30.32
2019-04-22T09:08:38.741Z,30.81
2019-04-22T09:11:07.047Z,32.27
2019-04-22T09:13:37.134Z,30.06
2019-04-22T09:16:08.905Z,28.42
2019-04-22T09:18:34.788Z,29.72
2019-04-22T09:21:14.208Z,27.76
2019-04-22T09:23:37.229Z,32.01
2019-04-22T09:26:03.475Z,28.93
2019-04-22T09:28:38.067Z,27.94
2019-04-22T09:31:06.080Z,29.43
2019-04-22T09:33:34.979Z,30.52
2019-04-22T09:36:09.489Z,30.03
2019-04-22T09:41:09.879Z,29.46
2019-04-22T09:43:41.045Z,27.68
2019-04-22T09:46:21.588Z,29.34
2019-04-22T09:48:37.500Z,29.49
2019-04-22T09:51:07.005Z,28.25
2019-04-22T09:53:36.115Z,29.15
2019-04-22T09:56:03.959Z,28.88
2019-04-22T09:58:41.632Z,30.03
2019-04-22T10:03:54.627Z,26.47
2019-04-22T10:06:23.173Z,28.50
2019-04-22T10:09:01.746Z,26.94
2019-04-22T10:11:24.036Z,26.45
2019-04-22T10:16:20.194Z,27.45
2019-04-22T10:21:31.509Z,29.07
2019-04-22T10:23:47.165Z,28.70
2019-04-22T10:26:21.775Z,26.65
2019-04-22T10:28:53.123Z,25.99
2019-04-22T10:31:29.428Z,26.92
2019-04-22T10:33:44.057Z,27.05
2019-04-22T10:35:53.373Z,26.87
2019-04-22T10:38:22.098Z,25.30
2019-04-22T10:40:52.469Z,25.78
2019-04-22T10:43:21.212Z,26.71
2019-04-22T10:45:50.262Z,26.57
2019-04-22T10:48:18.882Z,27.44
2019-04-22T10:50:48.867Z,26.39
2019-04-22T10:53:19.649Z,26.78
2019-04-22T10:55:50.965Z,26.93
2019-04-22T10:58:18.808Z,26.04
2019-04-22T11:00:47.456Z,25.23
2019-04-22T11:03:18.154Z,25.04
2019-04-22T11:05:48.297Z,25.50
2019-04-22T11:08:25.953Z,25.61
2019-04-22T11:11:03.632Z,25.86
2019-04-22T11:13:18.006Z,24.93
2019-04-22T11:15:46.836Z,28.10
2019-04-22T11:18:15.920Z,24.87
2019-04-22T11:20:44.413Z,25.20
2019-04-22T11:23:14.289Z,24.78
2019-04-22T11:25:43.964Z,24.30
2019-04-22T11:28:13.677Z,25.74
2019-04-22T11:30:42.902Z,26.57
2019-04-22T11:33:12.100Z,25.99
2019-04-22T11:35:41.768Z,24.45
2019-04-22T11:38:12.807Z,25.53
2019-04-22T11:40:45.988Z,23.02
2019-04-22T11:43:12.396Z,24.65
2019-04-22T11:45:41.590Z,24.34
2019-04-22T11:48:11.169Z,25.01
2019-04-22T11:50:40.139Z,27.79
2019-04-22T11:53:08.954Z,24.91
2019-04-22T11:55:37.742Z,26.45
2019-04-22T11:58:06.815Z,27.30
2019-04-22T12:00:37.167Z,24.94
2019-04-22T12:03:07.273Z,25.08
2019-04-22T12:05:35.902Z,24.63
2019-04-22T12:08:04.948Z,25.56
2019-04-22T12:10:41.118Z,25.01
2019-04-22T12:13:04.119Z,24.56
2019-04-22T12:15:35.076Z,26.07
2019-04-22T12:18:03.820Z,25.91
2019-04-22T12:20:32.977Z,24.24
2019-04-22T12:23:03.124Z,24.74
2019-04-22T12:25:44.365Z,23.49
2019-04-22T12:28:03.289Z,24.39
2019-04-22T12:30:33.393Z,22.73
2019-04-22T12:33:02.330Z,24.45
2019-04-22T12:35:32.549Z,24.27
2019-04-22T12:38:06.224Z,24.56
2019-04-22T12:40:41.178Z,23.69
2019-04-22T12:43:04.692Z,22.88
2019-04-22T12:45:32.028Z,23.71
2019-04-22T12:48:00.438Z,24.20
2019-04-22T12:50:33.848Z,25.51
2019-04-22T12:53:06.877Z,23.40
2019-04-22T12:55:30.296Z,24.90
2019-04-22T12:58:00.946Z,23.98
2019-04-22T13:00:30.210Z,22.59
2019-04-22T13:02:58.930Z,25.25
2019-04-22T13:05:27.399Z,23.69
2019-04-22T13:07:55.926Z,23.01
2019-04-22T13:10:26.018Z,24.69
2019-04-22T13:12:55.161Z,24.26
2019-04-22T13:15:23.952Z,24.09
2019-04-22T13:18:03.200Z,22.47
2019-04-22T13:20:24.344Z,22.48
2019-04-22T13:22:52.887Z,24.70
2019-04-22T13:25:26.032Z,23.50
2019-04-22T13:27:53.359Z,23.42
2019-04-22T13:30:23.307Z,24.54
2019-04-22T13:32:52.722Z,24.24
2019-04-22T13:35:22.290Z,23.67
2019-04-22T13:37:53.074Z,22.96
2019-04-22T13:40:23.199Z,23.55
2019-04-22T13:42:53.427Z,24.28
2019-04-22T13:45:22.388Z,26.12
2019-04-22T13:48:10.992Z,23.83
2019-04-22T13:51:01.660Z,23.62
2019-04-22T13:55:53.244Z,23.91
2019-04-22T13:58:04.315Z,23.23
2019-04-22T14:00:34.606Z,22.37
2019-04-22T14:03:22.517Z,24.48
2019-04-22T14:05:58.673Z,23.45
2019-04-22T14:08:27.083Z,25.77
2019-04-22T14:10:57.868Z,24.96
2019-04-22T14:13:25.920Z,23.60
2019-04-22T14:15:55.014Z,23.81
2019-04-22T14:18:23.457Z,24.32
2019-04-22T14:20:51.869Z,25.35
2019-04-22T14:23:20.729Z,26.34
2019-04-22T14:25:50.843Z,25.46
2019-04-22T14:28:21.436Z,26.43
2019-04-22T14:30:50.593Z,25.38
2019-04-22T14:33:20.308Z,25.86
2019-04-22T14:35:49.961Z,26.40
2019-04-22T14:38:18.542Z,25.49
2019-04-22T14:40:48.218Z,25.93
2019-04-22T14:43:40.384Z,24.02
2019-04-22T14:46:17.686Z,24.95
2019-04-22T14:48:45.779Z,24.46
2019-04-22T14:51:09.065Z,26.02
2019-04-22T14:53:36.883Z,26.03
2019-04-22T14:55:48.560Z,25.52
2019-04-22T14:58:17.401Z,24.49
2019-04-22T15:00:46.108Z,23.74
2019-04-22T15:03:15.622Z,23.21
2019-04-22T15:05:44.235Z,23.43
2019-04-22T15:08:13.173Z,26.51
2019-04-22T15:10:42.233Z,24.82
2019-04-22T15:13:11.618Z,24.07
2019-04-22T15:15:59.018Z,23.73
2019-04-22T15:18:31.644Z,26.03
2019-04-22T15:21:09.063Z,24.24
2019-04-22T15:23:38.495Z,25.58
2019-04-22T15:26:08.536Z,26.53
2019-04-22T15:28:37.456Z,24.24
2019-04-22T15:31:06.010Z,24.47
2019-04-22T15:33:35.243Z,24.63
2019-04-22T15:36:03.953Z,24.88
2019-04-22T15:38:32.404Z,24.31
2019-04-22T15:41:01.057Z,24.36
2019-04-22T15:43:34.641Z,24.12
2019-04-22T15:46:03.714Z,25.61
2019-04-22T15:48:33.791Z,25.12
2019-04-22T15:51:02.859Z,24.54
2019-04-22T15:53:31.705Z,25.14
2019-04-22T15:56:00.852Z,25.45
2019-04-22T15:58:30.183Z,26.22
2019-04-22T16:01:08.898Z,25.13
2019-04-22T16:03:29.139Z,26.38
2019-04-22T16:05:57.828Z,26.53
2019-04-22T16:08:26.714Z,26.21
2019-04-22T16:10:55.863Z,26.06
2019-04-22T16:13:27.311Z,26.91
2019-04-22T16:15:54.594Z,27.11
2019-04-22T16:18:24.442Z,26.90
2019-04-22T16:20:54.308Z,26.90
2019-04-22T16:23:27.891Z,29.02
2019-04-22T16:26:15.229Z,27.85
2019-04-22T16:28:45.134Z,27.46
2019-04-22T16:31:13.646Z,27.91
2019-04-22T16:33:45.409Z,27.86
2019-04-22T16:36:13.092Z,28.60
2019-04-22T16:38:42.762Z,28.08
2019-04-22T16:41:12.740Z,28.76
2019-04-22T16:43:42.719Z,27.22
2019-04-22T16:46:11.689Z,28.15
2019-04-22T16:48:40.207Z,27.43
2019-04-22T16:51:09.879Z,28.27
2019-04-22T16:53:38.981Z,28.22
2019-04-22T16:56:08.710Z,28.87
2019-04-22T16:58:37.230Z,29.96
2019-04-22T17:01:07.525Z,29.31
2019-04-22T17:03:38.707Z,29.53
2019-04-22T17:06:11.946Z,29.95
2019-04-22T17:08:40.458Z,29.79
2019-04-22T17:11:09.696Z,29.15
2019-04-22T17:13:39.908Z,29.48
2019-04-22T17:16:09.867Z,28.75
2019-04-22T17:18:39.401Z,30.08
2019-04-22T17:21:10.151Z,29.53
2019-04-22T17:23:38.313Z,29.88
2019-04-22T17:26:08.431Z,29.84
2019-04-22T17:28:37.485Z,29.74
2019-04-22T17:31:06.679Z,29.98
2019-04-22T17:33:35.257Z,31.23
2019-04-22T17:36:05.276Z,32.01
2019-04-22T17:38:42.784Z,30.84
2019-04-22T17:41:16.205Z,29.04
2019-04-22T17:43:58.793Z,29.58
2019-04-22T17:46:29.176Z,29.35
2019-04-22T17:49:10.261Z,29.16
2019-04-22T17:51:47.753Z,30.05
2019-04-22T17:54:27.181Z,29.74
2019-04-22T17:56:45.519Z,29.78
2019-04-22T17:59:19.021Z,29.94
2019-04-22T18:01:39.761Z,30.37
2019-04-22T18:03:55.543Z,30.95
2019-04-22T18:06:48.883Z,29.52
2019-04-22T18:09:11.315Z,29.91
2019-04-22T18:11:48.328Z,30.88
2019-04-22T18:14:29.966Z,30.17
2019-04-22T18:16:41.359Z,30.70
2019-04-22T18:19:15.531Z,29.87
2019-04-22T18:21:41.202Z,30.50
2019-04-22T18:24:05.086Z,30.78
2019-04-22T18:26:44.695Z,30.86
2019-04-22T18:29:11.522Z,30.33
2019-04-22T18:31:35.618Z,29.73
2019-04-22T18:34:08.260Z,30.76
2019-04-22T18:36:42.834Z,30.37
2019-04-22T18:39:20.863Z,30.42
2019-04-22T18:41:47.131Z,30.78
2019-04-22T18:44:19.971Z,30.43
2019-04-22T18:46:43.049Z,31.12
2019-04-22T18:49:12.387Z,30.76
2019-04-22T18:51:52.967Z,30.40
2019-04-22T18:54:31.005Z,30.86
2019-04-22T18:56:58.789Z,30.52
2019-04-22T18:59:18.470Z,30.41
2019-04-22T19:01:41.963Z,30.22
2019-04-22T19:04:17.180Z,30.94
2019-04-22T19:07:00.408Z,30.64
2019-04-22T19:09:38.238Z,30.84
2019-04-22T19:12:19.665Z,30.90
2019-04-22T19:14:40.556Z,31.36
2019-04-22T19:17:11.937Z,30.76
2019-04-22T19:19:55.949Z,30.55
2019-04-22T19:22:04.778Z,31.00
2019-04-22T19:24:32.336Z,30.45
2019-04-22T19:27:03.025Z,29.94
2019-04-22T19:29:39.905Z,30.58
2019-04-22T19:32:06.873Z,30.39
2019-04-22T19:34:38.487Z,29.90
2019-04-22T19:37:11.426Z,31.08
2019-04-22T19:39:33.080Z,30.55
2019-04-22T19:42:19.023Z,30.53
2019-04-22T19:44:38.555Z,30.62
2019-04-22T19:47:26.834Z,30.60
2019-04-22T19:49:48.102Z,30.30
2019-04-22T19:52:10.895Z,30.69
2019-04-22T19:54:37.737Z,31.18
2019-04-22T19:57:05.751Z,31.16
2019-04-22T19:59:50.826Z,31.55
2019-04-22T20:02:27.477Z,31.54
2019-04-22T20:05:06.533Z,31.61
2019-04-22T20:07:41.593Z,32.24
2019-04-22T20:10:23.593Z,32.31
2019-04-22T20:12:42.813Z,32.89
2019-04-22T20:15:14.246Z,32.11
2019-04-22T20:18:11.685Z,32.47
2019-04-22T20:20:23.032Z,33.33
2019-04-22T20:22:44.433Z,32.97
2019-04-22T20:25:07.624Z,32.73
2019-04-22T20:27:48.185Z,33.41
2019-04-22T20:30:26.621Z,33.15
2019-04-22T20:32:47.154Z,33.06
2019-04-22T20:35:21.299Z,33.09
2019-04-22T20:37:54.789Z,32.72
2019-04-22T20:40:25.277Z,33.54
2019-04-22T20:42:55.574Z,32.88
2019-04-22T20:45:26.995Z,34.16
2019-04-22T20:47:45.370Z,33.76
2019-04-22T20:50:23.573Z,33.47
2019-04-22T20:52:59.244Z,34.30
2019-04-22T20:55:17.966Z,33.64
2019-04-22T20:57:53.380Z,33.79
2019-04-22T21:00:20.009Z,34.34
2019-04-22T21:02:46.116Z,34.36
2019-04-22T21:05:19.700Z,33.99
2019-04-22T21:07:55.623Z,33.75
2019-04-22T21:10:19.853Z,34.37
2019-04-22T21:12:48.274Z,33.88
2019-04-22T21:15:32.125Z,34.51
2019-04-22T21:17:55.341Z,34.61
2019-04-22T21:20:34.775Z,34.54
2019-04-22T21:22:56.012Z,35.06
2019-04-22T21:25:20.776Z,35.88
2019-04-22T21:27:56.882Z,36.25
2019-04-22T21:30:26.466Z,35.94
2019-04-22T21:32:59.034Z,36.02
2019-04-22T21:35:47.509Z,36.57
2019-04-22T21:38:04.420Z,36.12
2019-04-22T21:40:45.614Z,37.77
2019-04-22T21:43:07.105Z,37.56
2019-04-22T21:45:25.241Z,37.88
2019-04-22T21:48:18.092Z,37.91
2019-04-22T21:50:51.545Z,37.92
2019-04-22T21:53:06.770Z,38.61
2019-04-22T21:55:37.892Z,38.29
2019-04-22T21:58:12.246Z,39.12
2019-04-22T22:01:06.522Z,39.42
2019-04-22T22:03:34.593Z,40.33
2019-04-22T22:05:49.176Z,39.74
2019-04-22T22:08:32.109Z,39.36
2019-04-22T22:10:58.410Z,39.27
2019-04-22T22:13:31.851Z,39.91
2019-04-22T22:16:00.113Z,40.43
2019-04-22T22:18:24.199Z,40.92
2019-04-22T22:21:19.630Z,39.96
2019-04-22T22:23:31.837Z,41.02
2019-04-22T22:25:55.220Z,41.26
2019-04-22T22:28:47.775Z,40.51
2019-04-22T22:31:08.855Z,40.08
2019-04-22T22:33:28.306Z,40.21
2019-04-22T22:35:58.373Z,41.32
2019-04-22T22:38:26.996Z,40.64
2019-04-22T22:40:43.848Z,40.71
2019-04-22T22:43:20.374Z,40.22
2019-04-22T22:45:49.144Z,40.25
2019-04-22T22:48:36.534Z,40.97
2019-04-22T22:50:58.507Z,40.38
2019-04-22T22:56:06.311Z,40.72
2019-04-22T22:58:34.804Z,41.36
2019-04-22T23:00:59.069Z,41.55
2019-04-22T23:03:45.614Z,41.18
2019-04-22T23:06:03.256Z,41.25
2019-04-22T23:08:38.181Z,41.93
2019-04-22T23:11:22.298Z,41.37
2019-04-22T23:13:37.073Z,42.16
2019-04-22T23:15:58.394Z,41.17
2019-04-22T23:18:14.033Z,41.66
2019-04-22T23:20:47.527Z,41.12
2019-04-22T23:23:33.038Z,41.67
2019-04-22T23:26:06.782Z,42.15
2019-04-22T23:28:41.159Z,42.00
2019-04-22T23:31:10.788Z,42.54
2019-04-22T23:33:54.679Z,43.18
2019-04-22T23:36:30.621Z,43.71
2019-04-22T23:39:12.178Z,43.06
2019-04-22T23:42:00.373Z,42.81
2019-04-22T23:44:16.012Z,43.30
2019-04-22T23:46:57.083Z,42.78
2019-04-22T23:49:25.061Z,43.21
2019-04-22T23:52:16.287Z,43.88
2019-04-22T23:54:35.873Z,44.07
2019-04-22T23:56:51.947Z,43.75
2019-04-22T23:59:44.561Z,43.77
